首页
METAR-TAF:

METAR-TAF

机场 :

斯瓦尔巴朗伊尔机场

朗伊爾城, 挪威

纬度: 78-15N, 经度: 015-28E, 海拔: 2米

当前天气观测

该预报发布于9分钟前的01:50 UTC
风速15节,风向东转东南
温度 -16°C
湿度 60%
气压 1025 hPa
能见度10公里或以上
少量云层高于2000英尺

METAR: ENSB 230150Z 11015KT 9999 FEW020 M16/M22 Q1025 RMK WIND 1400FT 13012KT

时间: 02:59 (01:59 UTC)

预报

预报有效从23日的 00点(UTC)到 23日的 24点(UTC)
风速8节,风向东转东南
能见度10公里或以上
少量云层高于1500英尺

TAF: ENSB 2300/2324 12008KT 9999 FEW015

超过4000个机场的气象观测和天气预报(METAR&TAF报告)。

可查询的气象台以黄色和红色小点在地图上表示。

将鼠标移到小点上方,可查看气象台名称。

然后点击查看天气观测和预报。

如需切换地图:点击带黑十字的绿色按钮放大地图;点击带横线的绿色按钮缩小地图;或者点击绿色箭头查看邻近地区的地图。


METAR-TAF: